Amboy, CA

11:15 PM PDT on July 27, 2014 (GMT -0700)
Twentynine Palms Expeditionary Air Field (KNXP) Elev 2054 ft | 34.30 °N, 116.16 °W | Change Station

Current weather conditions updated 19 minutes ago

Scattered Clouds
Scattered Clouds
88 °F
Feels Like 87 °F
N
4
Wind Variable Wind from SSE

Tomorrow is forecast to be Warmer than today.

Today
High -- | Low -- °F
--% Chance of Precip.
Yesterday
High -- | Low -- °F
Precip. -- in
5:50 AM 7:49 PM
New Moon, 2% visible
Pressure 29.95 in
Visibility 10.0 miles
Clouds Scattered Clouds 12000 ft
Heat Index 87 °F
Dew Point 58 °F
Humidity 36%
Rainfall 0.00 in
Snow Depth Not available.
UV 0 out of 12
Pollen 4.40 out of 12
Air Quality Not available.
Flu Activity Not available.
METAR KNXP 280556Z 15003KT 10SM SCT120 31/14 A3007 RMK AO2 SLP140 T03110144 10367 20311 51017

More Conditions Fewer Conditions

Pressure 29.95 in
Visibility 10.0 miles
Clouds Scattered Clouds 12000 ft
Heat Index 87 °F
Dew Point 58 °F
Humidity 36%
Rainfall 0.00 in
Snow Depth Not available.
UV 0 out of 12
Pollen 4.40 out of 12
Air Quality Not available.
Flu Activity Not available.
METAR KNXP 280556Z 15003KT 10SM SCT120 31/14 A3007 RMK AO2 SLP140 T03110144 10367 20311 51017

More Conditions Fewer Conditions

10-Day Weather Forecast

Almanac

Astronomy

Jul. 27, 2014 Rise Set
Actual Time 5:50 AM PDT 7:49 PM PDT
Civil Twilight 5:22 AM PDT 8:17 PM PDT
Nautical Twilight 4:48 AM PDT 8:51 PM PDT
Astronomical Twilight 4:11 AM PDT 9:27 PM PDT
Moon 6:36 AM PDT (7/27) 8:07 PM PDT (7/27)
Length of Visible Light 14h 55m
Length of Day
13h 59m
Tomorrow will be 1m 31s shorter.
New Moon, 2% of the Moon is Illuminated
Jul 28
New Moon
Aug 3
First Quarter
Aug 10
Full
Aug 17
Last Quarter
Aug 25
New

Yesterday's Extremes

State Highs State Lows

Community

WunderPhotos

Upload Photos

1,738,288 photos uploaded!

Nearby

Air Quality

  Air Quality AQ Index Pollutant
Monday Good
PM10
Monday Moderate
OZONE
Monday Good
CO
Monday Good
NO2

Snow Depth

Station Depth Elevation
Leavitt Lake 0 in 9400 ft
Leavitt Meadows 0 in 7200 ft
Monitor Pass 0 in 8350 ft
Adin Mountain 0 in 6200 ft
Cedar Pass 0 in 7100 ft

Earthquake Activity

City Distance Mag. Time & Date
No recent earthquake activity has been reported nearby.
Minimum magnitude displayed is 2.5.

Coastal Water Temperatures

Place Temperature
No Stations Reporting

Nearby Weather Stations

There are no personal weather stations in this area.